Time;durP1;ratioP1;P1;durP2;ratioP2;P2;SDS_P1;SDS_P2;PMS_P1;PMS_P2;Temp;Humidity;BMP_temperature;BMP_pressure;BME280_temperature;BME280_humidity;BME280_pressure;Samples;Min_cycle;Max_cycle;Signal;HPM_P1;HPM_P2
2023/09/27 00:00:19;;;;;;;4.72;4.28;;;15.20;99.90;;;;;;4956952;28;20037;-82
2023/09/27 00:02:46;;;;;;;4.47;4.07;;;15.20;99.10;;;;;;4971227;28;20582;-82
2023/09/27 00:05:12;;;;;;;6.60;4.82;;;15.20;97.90;;;;;;4975544;28;20439;-81
2023/09/27 00:07:38;;;;;;;7.18;4.68;;;15.30;97.30;;;;;;4956587;28;20030;-81
2023/09/27 00:10:05;;;;;;;4.18;3.67;;;15.30;98.30;;;;;;4974146;28;20128;-81
2023/09/27 00:12:39;;;;;;;4.72;4.05;;;15.50;98.60;;;;;;4974272;28;20062;-80
2023/09/27 00:15:07;;;;;;;4.75;3.92;;;15.40;98.60;;;;;;4972752;28;20034;-80
2023/09/27 00:17:33;;;;;;;3.65;3.33;;;15.50;98.20;;;;;;4959265;28;20042;-80
2023/09/27 00:19:58;;;;;;;4.55;4.10;;;15.50;98.80;;;;;;4978829;28;20027;-80
2023/09/27 00:22:27;;;;;;;6.47;4.07;;;15.30;98.00;;;;;;4972826;28;20038;-80
2023/09/27 00:24:52;;;;;;;4.30;3.90;;;15.30;97.40;;;;;;4955533;28;20372;-80
2023/09/27 00:27:18;;;;;;;3.22;2.92;;;15.30;99.10;;;;;;4958690;28;20046;-80
2023/09/27 00:29:45;;;;;;;3.83;3.20;;;15.30;98.40;;;;;;4971391;28;20475;-81
2023/09/27 00:32:11;;;;;;;4.85;4.15;;;15.40;98.90;;;;;;4985224;28;20027;-81
2023/09/27 00:34:37;;;;;;;6.82;4.63;;;15.50;99.90;;;;;;4974922;28;20494;-82
2023/09/27 00:37:02;;;;;;;8.55;5.88;;;15.30;99.90;;;;;;4968308;28;20038;-82
2023/09/27 00:39:28;;;;;;;9.48;4.68;;;15.20;99.90;;;;;;4953562;28;20042;-80
2023/09/27 00:41:54;;;;;;;6.15;4.97;;;15.00;99.90;;;;;;4973110;28;20031;-80
2023/09/27 00:44:20;;;;;;;5.35;4.82;;;14.90;99.90;;;;;;4971208;28;20154;-81
2023/09/27 00:46:46;;;;;;;8.13;5.38;;;14.90;99.90;;;;;;4967637;28;20030;-79
2023/09/27 00:49:11;;;;;;;7.88;5.43;;;14.80;99.90;;;;;;4987289;28;20033;-80
2023/09/27 00:51:37;;;;;;;4.53;4.10;;;14.80;99.90;;;;;;4972654;28;20050;-80
2023/09/27 00:54:02;;;;;;;4.43;3.70;;;14.90;99.90;;;;;;4968095;28;20046;-80
2023/09/27 00:56:28;;;;;;;6.10;4.90;;;14.90;99.90;;;;;;4969292;28;20094;-80
2023/09/27 00:58:54;;;;;;;4.13;3.67;;;15.20;99.90;;;;;;4974465;28;20506;-80
2023/09/27 01:01:19;;;;;;;5.93;4.82;;;15.20;99.90;;;;;;4960386;28;20042;-80
2023/09/27 01:03:45;;;;;;;4.80;3.55;;;15.10;99.90;;;;;;4984521;28;20070;-80
2023/09/27 01:06:11;;;;;;;10.13;3.70;;;15.10;99.90;;;;;;4973314;28;20042;-79
2023/09/27 01:08:36;;;;;;;6.93;3.85;;;15.20;99.90;;;;;;4972562;28;20037;-80
2023/09/27 01:11:02;;;;;;;6.15;4.55;;;15.00;99.90;;;;;;4970549;28;20035;-80
2023/09/27 01:13:27;;;;;;;9.15;4.75;;;14.90;99.90;;;;;;4956494;28;20058;-80
2023/09/27 01:15:53;;;;;;;7.25;4.47;;;14.70;99.90;;;;;;4971867;28;20061;-80
2023/09/27 01:18:19;;;;;;;4.40;4.00;;;14.70;99.90;;;;;;4970357;28;20043;-80
2023/09/27 01:20:44;;;;;;;4.53;3.10;;;14.70;99.90;;;;;;4952624;28;20046;-80
2023/09/27 01:23:10;;;;;;;9.52;4.28;;;14.80;99.90;;;;;;4972504;28;20046;-80
2023/09/27 01:25:36;;;;;;;6.38;5.40;;;14.90;99.90;;;;;;4970009;28;20031;-80
2023/09/27 01:28:04;;;;;;;8.02;5.00;;;14.70;99.90;;;;;;4973018;28;20077;-80
2023/09/27 01:30:32;;;;;;;4.15;3.13;;;14.50;99.90;;;;;;4954447;28;20035;-80
2023/09/27 01:33:04;;;;;;;4.30;3.58;;;14.50;99.90;;;;;;4953545;28;20043;-79
2023/09/27 01:35:30;;;;;;;4.35;3.60;;;14.80;99.90;;;;;;4984315;28;20500;-80
2023/09/27 01:37:56;;;;;;;5.43;4.28;;;14.90;99.90;;;;;;4972174;28;20046;-80
2023/09/27 01:40:23;;;;;;;4.78;4.35;;;14.80;99.90;;;;;;4956107;28;20471;-80
2023/09/27 01:42:48;;;;;;;6.75;4.85;;;14.60;99.90;;;;;;4953467;28;20076;-80
2023/09/27 01:45:14;;;;;;;8.75;6.15;;;14.40;99.90;;;;;;4969815;28;20050;-81
2023/09/27 01:47:39;;;;;;;5.78;5.18;;;14.50;99.90;;;;;;4965520;28;20065;-81
2023/09/27 01:50:07;;;;;;;8.30;4.97;;;14.50;99.90;;;;;;4972476;28;20041;-80
2023/09/27 01:52:33;;;;;;;5.55;5.05;;;14.40;99.90;;;;;;4952566;28;20053;-80
2023/09/27 01:54:58;;;;;;;8.18;5.88;;;14.20;99.90;;;;;;4970028;28;20119;-81
2023/09/27 01:57:24;;;;;;;8.68;5.88;;;14.10;99.90;;;;;;4953993;28;20410;-81
2023/09/27 01:59:49;;;;;;;9.10;5.65;;;14.00;99.90;;;;;;4968022;28;20035;-80
2023/09/27 02:02:15;;;;;;;7.18;5.72;;;14.00;99.90;;;;;;4970578;28;20054;-80
2023/09/27 02:04:41;;;;;;;6.05;4.82;;;14.00;99.90;;;;;;4968575;28;20054;-80
2023/09/27 02:07:06;;;;;;;8.48;5.68;;;14.10;99.90;;;;;;4972663;28;20038;-81
2023/09/27 02:09:32;;;;;;;8.68;6.22;;;14.00;99.90;;;;;;4951274;28;20601;-81
2023/09/27 02:11:57;;;;;;;7.53;6.20;;;13.90;99.90;;;;;;4970140;28;20052;-81
2023/09/27 02:14:23;;;;;;;7.05;5.95;;;13.90;99.90;;;;;;4953978;28;20490;-80
2023/09/27 02:16:48;;;;;;;6.32;4.50;;;13.80;99.90;;;;;;4971713;28;20042;-80
2023/09/27 02:19:14;;;;;;;7.90;5.85;;;13.90;99.90;;;;;;4953136;28;20085;-80
2023/09/27 02:21:39;;;;;;;4.85;4.13;;;13.90;99.90;;;;;;4969078;28;20038;-81
2023/09/27 02:24:09;;;;;;;7.95;5.57;;;13.90;99.90;;;;;;4968959;28;20042;-80
2023/09/27 02:26:34;;;;;;;4.72;4.30;;;13.90;99.90;;;;;;4954056;28;20035;-81
2023/09/27 02:29:00;;;;;;;9.93;5.88;;;14.10;99.90;;;;;;4965097;28;20983;-80
2023/09/27 02:31:26;;;;;;;3.40;3.10;;;14.20;99.90;;;;;;4952947;28;20066;-80
2023/09/27 02:33:51;;;;;;;3.25;2.95;;;14.30;99.90;;;;;;4968789;28;20047;-81
2023/09/27 02:36:17;;;;;;;5.75;3.45;;;14.40;99.90;;;;;;4966113;28;20119;-81
2023/09/27 02:38:43;;;;;;;7.57;3.55;;;14.40;99.90;;;;;;4949027;28;20035;-80
2023/09/27 02:41:08;;;;;;;4.13;3.72;;;14.50;99.90;;;;;;4970075;28;20380;-81
2023/09/27 02:43:34;;;;;;;3.72;3.20;;;14.60;99.90;;;;;;4966997;28;20411;-81
2023/09/27 02:46:00;;;;;;;6.15;2.85;;;14.50;99.90;;;;;;4970544;28;20102;-81
2023/09/27 02:48:25;;;;;;;6.07;4.32;;;14.60;99.90;;;;;;4950005;28;20121;-81
2023/09/27 02:50:54;;;;;;;7.88;4.20;;;14.50;99.90;;;;;;4969547;28;20040;-81
2023/09/27 02:53:20;;;;;;;4.32;3.92;;;14.40;99.90;;;;;;4968098;28;20042;-81
2023/09/27 02:55:46;;;;;;;3.90;3.10;;;14.40;99.90;;;;;;4971445;28;20049;-81
2023/09/27 02:58:12;;;;;;;5.40;3.30;;;14.30;99.90;;;;;;4968188;28;20035;-81
2023/09/27 03:00:37;;;;;;;8.65;5.68;;;14.20;99.90;;;;;;4967998;28;20097;-81
2023/09/27 03:03:03;;;;;;;6.85;5.28;;;14.10;99.90;;;;;;4950104;28;20047;-81
2023/09/27 03:05:30;;;;;;;12.77;6.15;;;13.90;99.90;;;;;;4956381;28;20034;-81
2023/09/27 03:07:58;;;;;;;9.30;6.65;;;13.70;99.90;;;;;;4977300;28;20557;-81
2023/09/27 03:10:23;;;;;;;7.72;6.85;;;13.60;99.90;;;;;;4974013;28;20039;-81
2023/09/27 03:12:49;;;;;;;10.88;6.72;;;13.60;99.90;;;;;;4938821;28;20057;-81
2023/09/27 03:15:15;;;;;;;8.82;6.75;;;13.50;99.90;;;;;;4970098;28;20043;-81
2023/09/27 03:17:41;;;;;;;7.05;6.35;;;13.40;99.90;;;;;;4990877;28;20037;-81
2023/09/27 03:20:10;;;;;;;8.27;6.80;;;13.30;99.90;;;;;;4974028;28;20039;-81
2023/09/27 03:22:36;;;;;;;7.22;5.43;;;13.30;99.90;;;;;;4971854;28;20089;-81
2023/09/27 03:25:02;;;;;;;5.97;4.93;;;13.30;99.90;;;;;;4971857;28;20538;-81
2023/09/27 03:27:27;;;;;;;7.13;6.25;;;13.20;99.90;;;;;;4972877;28;20042;-81
2023/09/27 03:29:53;;;;;;;6.38;5.78;;;13.20;99.90;;;;;;4974182;28;20027;-81
2023/09/27 03:32:19;;;;;;;7.68;5.57;;;13.20;99.90;;;;;;4968724;28;20034;-81
2023/09/27 03:34:46;;;;;;;5.88;5.35;;;13.20;99.90;;;;;;4973104;28;20050;-81
2023/09/27 03:37:11;;;;;;;6.03;5.15;;;13.30;99.90;;;;;;4953987;28;20035;-81
2023/09/27 03:39:37;;;;;;;7.38;4.80;;;13.30;99.90;;;;;;4956238;28;20394;-81
2023/09/27 03:42:03;;;;;;;5.65;5.15;;;13.30;99.90;;;;;;4949149;28;20376;-80
2023/09/27 03:44:29;;;;;;;7.40;6.55;;;13.30;99.90;;;;;;4967703;28;20039;-81
2023/09/27 03:46:55;;;;;;;7.95;6.43;;;13.20;99.90;;;;;;4972191;28;20027;-81
2023/09/27 03:49:21;;;;;;;7.90;6.35;;;13.10;99.90;;;;;;4974860;28;20387;-81
2023/09/27 03:51:46;;;;;;;7.03;5.82;;;13.00;99.90;;;;;;4971895;28;20158;-80
2023/09/27 03:54:12;;;;;;;9.80;6.90;;;12.90;99.90;;;;;;4969354;28;20113;-82
2023/09/27 03:56:37;;;;;;;7.25;6.38;;;13.00;99.90;;;;;;4986581;28;20491;-81
2023/09/27 03:59:03;;;;;;;8.55;7.03;;;12.90;99.90;;;;;;4971909;28;21326;-81
2023/09/27 04:01:29;;;;;;;8.80;7.25;;;12.80;99.90;;;;;;4971864;28;20530;-81
2023/09/27 04:03:54;;;;;;;11.63;7.57;;;12.90;99.90;;;;;;4972149;28;20066;-80
2023/09/27 04:06:20;;;;;;;7.63;6.13;;;12.80;99.90;;;;;;4935819;28;20039;-80
2023/09/27 04:08:46;;;;;;;8.90;7.45;;;12.80;99.90;;;;;;4971405;28;20038;-80
2023/09/27 04:11:11;;;;;;;8.77;7.22;;;12.70;99.90;;;;;;4970041;28;20027;-80
2023/09/27 04:13:37;;;;;;;8.48;7.63;;;12.60;99.90;;;;;;4953968;28;20182;-80
2023/09/27 04:16:03;;;;;;;8.43;7.63;;;12.70;99.90;;;;;;4976601;28;20077;-80
2023/09/27 04:18:29;;;;;;;17.88;9.15;;;12.70;99.90;;;;;;4951592;28;20514;-80
2023/09/27 04:20:54;;;;;;;13.25;8.15;;;12.60;99.90;;;;;;4969233;28;20035;-80
2023/09/27 04:23:20;;;;;;;9.30;7.72;;;12.60;99.90;;;;;;4971446;28;20054;-80
2023/09/27 04:25:45;;;;;;;11.30;8.02;;;12.60;99.90;;;;;;4971800;28;20043;-80
2023/09/27 04:28:11;;;;;;;10.70;6.90;;;12.60;99.90;;;;;;4972056;28;20590;-80
2023/09/27 04:30:37;;;;;;;8.75;6.05;;;12.50;99.90;;;;;;4969573;28;20386;-80
2023/09/27 04:33:03;;;;;;;8.95;7.70;;;12.70;99.90;;;;;;4968840;28;20042;-81
2023/09/27 04:35:28;;;;;;;10.35;7.75;;;12.60;99.90;;;;;;4973925;28;20463;-80
2023/09/27 04:37:54;;;;;;;8.70;7.80;;;12.50;99.90;;;;;;4969532;28;20039;-80
2023/09/27 04:40:20;;;;;;;7.47;6.68;;;12.50;99.90;;;;;;4956579;28;20030;-81
2023/09/27 04:42:46;;;;;;;11.40;7.78;;;12.40;99.90;;;;;;4973922;28;20065;-81
2023/09/27 04:45:12;;;;;;;8.10;7.00;;;12.40;99.90;;;;;;4970973;28;20038;-81
2023/09/27 04:47:38;;;;;;;9.63;7.20;;;12.40;99.90;;;;;;4969656;28;20038;-81
2023/09/27 04:50:06;;;;;;;8.52;7.63;;;12.30;99.90;;;;;;4971703;28;20030;-81
2023/09/27 04:52:32;;;;;;;8.82;7.00;;;12.20;99.90;;;;;;4978461;28;20062;-80
2023/09/27 04:54:57;;;;;;;8.55;6.50;;;12.10;99.90;;;;;;4970595;28;20622;-81
2023/09/27 04:57:24;;;;;;;12.50;7.57;;;12.20;99.90;;;;;;4977998;28;20066;-81
2023/09/27 04:59:51;;;;;;;10.20;5.60;;;12.20;99.90;;;;;;4957176;28;20110;-81
2023/09/27 05:02:17;;;;;;;7.50;6.22;;;12.30;99.90;;;;;;4952866;28;20618;-81
2023/09/27 05:04:43;;;;;;;9.15;7.72;;;12.30;99.90;;;;;;4956217;28;20143;-81
2023/09/27 05:07:09;;;;;;;9.00;8.02;;;12.30;99.90;;;;;;4951184;28;20519;-81
2023/09/27 05:09:34;;;;;;;10.05;7.75;;;12.20;99.90;;;;;;4952889;28;20043;-81
2023/09/27 05:12:00;;;;;;;10.93;8.20;;;12.20;99.90;;;;;;4973785;28;20049;-81
2023/09/27 05:14:25;;;;;;;9.63;8.38;;;12.10;99.90;;;;;;4974529;28;20043;-80
2023/09/27 05:16:51;;;;;;;10.50;8.60;;;12.00;99.90;;;;;;4967323;28;20031;-81
2023/09/27 05:19:16;;;;;;;9.75;7.85;;;12.00;99.90;;;;;;4957003;28;20408;-81
2023/09/27 05:21:43;;;;;;;11.55;7.82;;;12.10;99.90;;;;;;4972813;28;20625;-81
2023/09/27 05:24:09;;;;;;;8.48;6.65;;;12.10;99.90;;;;;;4967671;28;20134;-81
2023/09/27 05:26:34;;;;;;;11.65;7.88;;;12.00;99.90;;;;;;4967658;28;20490;-81
2023/09/27 05:29:01;;;;;;;10.30;7.97;;;12.10;99.90;;;;;;4972813;28;20046;-81
2023/09/27 05:31:28;;;;;;;15.63;9.07;;;12.00;99.90;;;;;;4971435;28;20049;-80
2023/09/27 05:33:53;;;;;;;11.65;8.73;;;11.90;99.90;;;;;;4950900;28;20554;-80
2023/09/27 05:36:19;;;;;;;12.18;8.57;;;11.90;99.90;;;;;;4968249;28;20039;-81
2023/09/27 05:38:46;;;;;;;12.45;9.10;;;11.80;99.90;;;;;;4973427;28;20069;-81
2023/09/27 05:41:11;;;;;;;14.60;9.02;;;11.80;99.90;;;;;;4955381;28;20141;-81
2023/09/27 05:43:37;;;;;;;10.30;8.23;;;11.90;99.90;;;;;;4966289;28;20451;-80
2023/09/27 05:46:03;;;;;;;9.35;8.07;;;11.90;99.90;;;;;;4971688;28;20037;-81
2023/09/27 05:48:30;;;;;;;10.60;8.75;;;11.90;99.90;;;;;;4972550;28;20182;-81
2023/09/27 05:50:56;;;;;;;9.95;8.95;;;11.90;99.90;;;;;;4951770;28;20498;-81
2023/09/27 05:53:21;;;;;;;13.10;8.40;;;11.90;99.90;;;;;;4957593;28;20030;-80
2023/09/27 05:55:48;;;;;;;11.43;8.40;;;11.80;99.90;;;;;;4971543;28;20043;-81
2023/09/27 05:58:13;;;;;;;10.20;7.53;;;11.70;99.90;;;;;;4969196;28;20034;-81
2023/09/27 06:00:42;;;;;;;13.50;8.10;;;11.80;99.90;;;;;;4984375;28;20136;-81
2023/09/27 06:03:08;;;;;;;6.18;5.32;;;11.80;99.90;;;;;;4969263;28;20110;-80
2023/09/27 06:05:34;;;;;;;10.02;7.38;;;11.90;99.90;;;;;;4967689;28;20503;-81
2023/09/27 06:07:59;;;;;;;11.25;8.40;;;12.10;99.90;;;;;;4970676;28;20049;-81
2023/09/27 06:10:25;;;;;;;10.32;8.27;;;12.00;99.90;;;;;;4968008;28;20035;-82
2023/09/27 06:12:51;;;;;;;9.60;7.95;;;12.00;99.90;;;;;;4954434;28;20372;-81
2023/09/27 06:15:17;;;;;;;13.77;9.30;;;12.00;99.90;;;;;;4970027;28;20070;-80
2023/09/27 06:17:43;;;;;;;22.08;10.80;;;12.10;99.90;;;;;;4967678;28;20776;-81
2023/09/27 06:20:19;;;;;;;17.05;8.80;;;12.10;99.90;;;;;;4968439;28;20031;-81
2023/09/27 06:22:48;;;;;;;11.02;7.82;;;12.10;99.90;;;;;;4971527;28;20030;-80
2023/09/27 06:25:14;;;;;;;19.05;9.90;;;12.20;99.90;;;;;;4953873;28;20054;-81
2023/09/27 06:27:40;;;;;;;12.50;9.18;;;12.40;99.90;;;;;;4970570;28;20576;-81
2023/09/27 06:30:07;;;;;;;11.30;7.72;;;12.50;99.90;;;;;;4953544;28;20110;-81
2023/09/27 06:32:36;;;;;;;14.00;8.93;;;12.70;99.90;;;;;;4950916;28;20125;-81
2023/09/27 06:35:10;;;;;;;6.80;6.07;;;12.90;99.90;;;;;;4968739;28;20119;-81
2023/09/27 06:37:37;;;;;;;11.52;6.88;;;13.00;99.90;;;;;;4953639;28;20035;-81
2023/09/27 06:40:07;;;;;;;6.80;5.70;;;13.00;99.90;;;;;;4971208;28;20203;-81
2023/09/27 06:42:33;;;;;;;8.77;6.55;;;13.30;99.90;;;;;;4970481;28;20110;-81
2023/09/27 06:44:59;;;;;;;9.27;8.05;;;13.60;99.90;;;;;;4955189;28;20121;-80
2023/09/27 06:47:24;;;;;;;6.72;5.78;;;13.70;99.90;;;;;;4950741;28;20407;-81
2023/09/27 06:49:51;;;;;;;9.65;7.00;;;13.70;99.90;;;;;;4954592;28;20089;-82
2023/09/27 06:52:16;;;;;;;6.70;5.40;;;13.80;99.90;;;;;;4972615;28;20106;-81
2023/09/27 06:54:42;;;;;;;8.40;4.90;;;13.80;99.90;;;;;;4971366;28;20110;-82
2023/09/27 06:57:07;;;;;;;8.15;4.65;;;13.90;99.90;;;;;;4954901;28;20022;-81
2023/09/27 06:59:33;;;;;;;6.20;5.38;;;14.10;99.90;;;;;;4970923;28;20106;-81
2023/09/27 07:01:59;;;;;;;10.02;6.38;;;14.00;99.90;;;;;;4978427;28;20042;-80
2023/09/27 07:04:24;;;;;;;11.68;6.88;;;14.10;99.90;;;;;;4958866;28;20045;-81
2023/09/27 07:06:50;;;;;;;12.75;7.72;;;13.90;99.90;;;;;;4958122;28;20031;-80
2023/09/27 07:09:16;;;;;;;8.95;7.32;;;13.90;99.90;;;;;;4969678;28;20027;-81
2023/09/27 07:11:44;;;;;;;13.10;8.52;;;13.90;99.90;;;;;;4955434;28;20457;-80
2023/09/27 07:14:10;;;;;;;9.15;7.53;;;13.80;99.90;;;;;;4974505;28;20046;-81
2023/09/27 07:16:36;;;;;;;11.57;7.38;;;13.90;99.90;;;;;;4974111;28;20035;-81
2023/09/27 07:19:05;;;;;;;11.98;8.48;;;13.90;99.90;;;;;;4956042;28;20033;-81
2023/09/27 07:21:31;;;;;;;10.80;9.05;;;13.90;99.90;;;;;;4972379;28;20030;-81
2023/09/27 07:23:56;;;;;;;10.43;9.13;;;13.90;99.90;;;;;;4970561;28;20062;-81
2023/09/27 07:26:22;;;;;;;11.43;9.48;;;13.90;99.90;;;;;;4972377;28;20033;-80
2023/09/27 07:28:47;;;;;;;10.13;8.02;;;14.00;99.90;;;;;;4971790;28;20121;-81
2023/09/27 07:31:14;;;;;;;10.73;6.43;;;14.00;99.90;;;;;;4971711;28;20110;-80
2023/09/27 07:33:40;;;;;;;7.80;6.35;;;14.10;99.90;;;;;;4953725;28;20510;-80
2023/09/27 07:36:08;;;;;;;6.43;5.68;;;14.20;99.90;;;;;;4953384;28;20045;-81
2023/09/27 07:38:35;;;;;;;8.45;7.40;;;14.30;99.90;;;;;;4973812;28;20079;-80
2023/09/27 07:41:00;;;;;;;10.00;8.13;;;14.40;99.90;;;;;;4968626;28;20438;-81
2023/09/27 07:43:26;;;;;;;14.52;9.18;;;14.40;99.90;;;;;;4975972;28;20049;-80
2023/09/27 07:45:52;;;;;;;12.60;9.05;;;14.40;99.90;;;;;;4970969;28;20423;-81
2023/09/27 07:48:21;;;;;;;11.55;8.63;;;14.50;99.90;;;;;;4973232;28;20536;-80
2023/09/27 07:50:47;;;;;;;4.85;4.43;;;14.70;99.90;;;;;;4972769;28;20030;-80
2023/09/27 07:53:13;;;;;;;9.75;7.25;;;14.80;99.90;;;;;;4970827;28;20045;-80
2023/09/27 07:55:50;;;;;;;7.47;6.78;;;15.00;99.90;;;;;;4970948;28;20061;-80
2023/09/27 07:58:17;;;;;;;10.02;7.72;;;15.10;99.90;;;;;;4959244;28;20524;-81
2023/09/27 08:00:43;;;;;;;9.73;8.43;;;15.20;99.90;;;;;;4973795;28;20042;-81
2023/09/27 08:03:14;;;;;;;8.43;7.53;;;15.30;99.90;;;;;;4952976;28;20133;-81
2023/09/27 08:05:43;;;;;;;7.82;6.07;;;15.50;99.90;;;;;;4953948;28;20565;-80
2023/09/27 08:08:10;;;;;;;10.80;7.63;;;15.60;99.90;;;;;;4973908;28;20596;-80
2023/09/27 08:10:43;;;;;;;5.47;4.68;;;15.90;99.90;;;;;;4972628;28;20509;-79
2023/09/27 08:13:14;;;;;;;7.43;5.75;;;16.20;99.90;;;;;;4978045;28;20077;-80
2023/09/27 08:15:44;;;;;;;7.20;5.65;;;16.50;99.90;;;;;;4955173;28;20553;-81
2023/09/27 08:18:10;;;;;;;7.88;4.20;;;16.70;99.90;;;;;;4977045;28;20513;-82
2023/09/27 08:20:35;;;;;;;8.43;5.43;;;16.90;99.90;;;;;;4971389;28;20042;-80
2023/09/27 08:23:02;;;;;;;11.43;5.00;;;17.20;99.90;;;;;;4972785;28;20229;-80
2023/09/27 08:25:28;;;;;;;4.22;3.53;;;17.30;99.90;;;;;;4965301;28;20479;-81
2023/09/27 08:27:53;;;;;;;9.20;3.97;;;17.30;99.90;;;;;;4973068;28;20035;-82
2023/09/27 08:30:20;;;;;;;7.38;4.10;;;17.50;99.90;;;;;;4969064;28;20474;-81
2023/09/27 08:32:46;;;;;;;7.15;5.20;;;17.50;99.90;;;;;;4973251;28;20377;-80
2023/09/27 08:35:11;;;;;;;10.63;6.25;;;17.70;99.90;;;;;;4972244;28;20027;-81
2023/09/27 08:37:37;;;;;;;7.03;5.28;;;17.70;99.90;;;;;;4972508;28;20037;-80
2023/09/27 08:40:12;;;;;;;8.55;5.90;;;17.80;99.90;;;;;;4977455;28;20027;-80
2023/09/27 08:42:39;;;;;;;11.23;4.43;;;18.00;99.90;;;;;;4972644;28;20041;-81
2023/09/27 08:45:11;;;;;;;7.28;5.15;;;18.40;99.90;;;;;;4973076;28;20057;-81
2023/09/27 08:47:36;;;;;;;5.32;3.70;;;18.60;99.90;;;;;;4969929;28;21403;-80
2023/09/27 08:50:04;;;;;;;9.60;5.63;;;18.60;99.90;;;;;;4973989;28;20026;-80
2023/09/27 08:52:29;;;;;;;3.95;3.55;;;18.60;99.90;;;;;;4971428;28;20038;-80
2023/09/27 08:54:55;;;;;;;6.18;4.57;;;18.60;99.90;;;;;;4975966;28;20638;-80
2023/09/27 08:57:21;;;;;;;9.18;5.13;;;18.70;99.90;;;;;;4973634;28;20353;-80
2023/09/27 08:59:46;;;;;;;6.00;3.50;;;18.90;99.90;;;;;;4973275;28;20191;-79
2023/09/27 09:02:12;;;;;;;8.52;4.25;;;19.00;99.90;;;;;;4972389;28;20142;-80
2023/09/27 09:04:38;;;;;;;2.83;2.50;;;19.10;99.90;;;;;;4968819;28;20058;-80
2023/09/27 09:07:06;;;;;;;6.43;3.65;;;19.30;99.90;;;;;;4969201;28;20126;-80
2023/09/27 09:09:33;;;;;;;4.38;3.40;;;19.40;99.90;;;;;;4966662;28;20087;-80
2023/09/27 09:12:00;;;;;;;5.32;3.33;;;19.60;99.90;;;;;;4973158;28;20027;-80
2023/09/27 09:14:49;;;;;;;5.68;3.95;;;19.80;99.90;;;;;;4954798;28;20510;-80
2023/09/27 09:17:18;;;;;;;6.07;4.60;;;20.00;99.90;;;;;;4985377;28;20088;-80
2023/09/27 09:19:44;;;;;;;5.80;3.75;;;20.10;99.90;;;;;;4967598;28;20265;-79
2023/09/27 09:22:11;;;;;;;6.50;3.90;;;20.00;99.90;;;;;;4972740;28;20434;-79
2023/09/27 09:24:41;;;;;;;6.88;4.07;;;20.10;99.90;;;;;;4971338;28;20058;-79
2023/09/27 09:27:13;;;;;;;7.32;4.15;;;20.20;99.90;;;;;;4973136;28;20509;-79
2023/09/27 09:29:52;;;;;;;3.90;3.30;;;20.30;99.90;;;;;;4969558;28;20581;-80
2023/09/27 09:32:22;;;;;;;4.00;2.88;;;20.40;99.90;;;;;;4969820;28;20510;-79
2023/09/27 09:34:49;;;;;;;5.18;3.60;;;20.50;99.90;;;;;;4972821;28;20376;-79
2023/09/27 09:37:26;;;;;;;4.47;3.38;;;21.00;99.90;;;;;;4974156;28;20030;-79
2023/09/27 09:39:52;;;;;;;5.60;3.28;;;21.10;99.90;;;;;;4970482;28;20042;-78
2023/09/27 09:42:34;;;;;;;3.78;2.38;;;21.40;99.90;;;;;;4951880;28;20950;-80
2023/09/27 09:45:21;;;;;;;2.67;2.47;;;21.90;99.90;;;;;;4955767;28;20054;-81
2023/09/27 09:47:47;;;;;;;5.70;2.90;;;22.30;99.90;;;;;;4953260;28;20034;-81
2023/09/27 09:50:16;;;;;;;6.03;2.85;;;22.60;99.90;;;;;;4978834;28;20502;-82
2023/09/27 09:52:53;;;;;;;6.13;2.67;;;22.60;99.20;;;;;;4967847;28;20049;-81
2023/09/27 09:55:20;;;;;;;2.90;2.50;;;23.00;99.70;;;;;;4989436;28;20030;-81
2023/09/27 09:57:46;;;;;;;2.80;2.42;;;22.90;98.70;;;;;;4991766;28;20034;-82
2023/09/27 10:00:16;;;;;;;5.97;2.40;;;23.30;98.10;;;;;;4991729;28;20056;-82
2023/09/27 10:03:00;;;;;;;3.45;2.83;;;23.30;98.20;;;;;;4985680;28;20034;-82
2023/09/27 10:05:34;;;;;;;3.40;2.58;;;23.50;98.00;;;;;;4987234;28;20494;-82
2023/09/27 10:07:59;;;;;;;3.15;2.58;;;23.10;98.60;;;;;;4983426;28;20035;-82
2023/09/27 10:10:25;;;;;;;2.53;2.33;;;23.00;98.70;;;;;;4982762;28;20087;-83
2023/09/27 10:12:52;;;;;;;4.05;2.42;;;23.20;98.60;;;;;;4980636;28;20030;-82
2023/09/27 10:15:20;;;;;;;3.83;2.65;;;23.30;98.40;;;;;;4976611;28;20402;-82
2023/09/27 10:17:45;;;;;;;5.75;3.03;;;23.40;97.80;;;;;;4978406;28;20026;-81
2023/09/27 10:20:19;;;;;;;2.38;2.17;;;23.50;98.60;;;;;;4975384;28;20510;-82
2023/09/27 10:22:49;;;;;;;4.05;2.65;;;24.20;97.20;;;;;;4982255;28;20142;-82
2023/09/27 10:25:23;;;;;;;2.47;2.28;;;23.80;97.30;;;;;;4965975;28;20027;-81
2023/09/27 10:28:01;;;;;;;4.10;2.90;;;23.60;97.40;;;;;;4975070;28;20483;-82
2023/09/27 10:30:27;;;;;;;4.75;2.58;;;24.60;96.50;;;;;;4976468;28;20120;-82
2023/09/27 10:33:14;;;;;;;2.83;2.33;;;24.70;97.20;;;;;;4949788;28;20023;-83
2023/09/27 10:35:47;;;;;;;3.92;2.13;;;25.30;94.30;;;;;;4991453;28;20035;-83
2023/09/27 10:38:13;;;;;;;3.55;2.53;;;25.30;94.70;;;;;;4959013;28;20031;-83
2023/09/27 10:40:47;;;;;;;2.90;2.15;;;25.10;95.80;;;;;;4973071;28;20045;-83
2023/09/27 10:43:34;;;;;;;4.35;2.17;;;24.90;96.30;;;;;;4988929;28;20495;-83
2023/09/27 10:46:04;;;;;;;2.90;2.20;;;24.90;96.90;;;;;;4991274;28;20034;-82
2023/09/27 10:48:32;;;;;;;2.67;2.20;;;24.50;97.20;;;;;;4973369;28;20034;-83
2023/09/27 10:50:58;;;;;;;5.45;2.55;;;25.70;96.00;;;;;;4972784;28;20339;-83
2023/09/27 10:53:24;;;;;;;4.53;2.22;;;25.50;96.50;;;;;;4971974;28;20039;-84
2023/09/27 10:55:49;;;;;;;4.32;2.28;;;24.80;98.30;;;;;;4973832;28;20094;-83
2023/09/27 10:58:16;;;;;;;2.63;2.00;;;25.70;95.20;;;;;;4978004;28;20031;-82
2023/09/27 11:00:55;;;;;;;3.08;2.03;;;26.10;94.20;;;;;;4974376;28;20049;-83
2023/09/27 11:03:20;;;;;;;3.88;2.17;;;26.90;92.30;;;;;;4959466;28;20155;-83
2023/09/27 11:05:46;;;;;;;2.75;1.80;;;27.20;91.00;;;;;;4971818;28;20142;-82
2023/09/27 11:08:18;;;;;;;2.08;1.85;;;28.00;88.70;;;;;;4957160;28;20479;-83
2023/09/27 11:10:43;;;;;;;3.13;2.10;;;28.20;85.60;;;;;;4973825;28;20568;-83
2023/09/27 11:13:10;;;;;;;3.10;2.30;;;27.70;88.90;;;;;;4284240;28;10000393;-83
2023/09/27 11:15:37;;;;;;;3.75;2.40;;;27.10;90.50;;;;;;4955497;28;20046;-83
2023/09/27 11:18:04;;;;;;;3.33;1.98;;;27.00;91.10;;;;;;4955455;28;20571;-82
2023/09/27 11:20:30;;;;;;;3.30;2.13;;;27.40;89.20;;;;;;4951259;28;20030;-83
2023/09/27 11:22:58;;;;;;;2.63;1.70;;;27.60;88.30;;;;;;4978145;28;20412;-83
2023/09/27 11:25:31;;;;;;;2.65;1.83;;;27.60;87.70;;;;;;4951588;28;20039;-82
2023/09/27 11:27:57;;;;;;;2.63;1.88;;;28.10;85.80;;;;;;4957352;28;20053;-83
2023/09/27 11:30:26;;;;;;;3.20;2.40;;;28.90;83.70;;;;;;4969400;28;20466;-83
2023/09/27 11:32:52;;;;;;;4.07;1.92;;;28.60;83.40;;;;;;4970227;28;21089;-83
2023/09/27 11:35:20;;;;;;;4.78;2.20;;;28.80;78.90;;;;;;4956604;28;20125;-83
2023/09/27 11:37:47;;;;;;;3.65;1.80;;;29.30;78.20;;;;;;4972188;28;20030;-83
2023/09/27 11:40:13;;;;;;;5.00;2.13;;;29.60;77.60;;;;;;4974336;28;20045;-82
2023/09/27 11:42:38;;;;;;;3.20;2.20;;;28.80;83.30;;;;;;4973105;28;20419;-82
2023/09/27 11:45:08;;;;;;;3.50;1.92;;;28.30;82.10;;;;;;4970473;28;20051;-82
2023/09/27 11:47:49;;;;;;;3.63;2.17;;;28.10;81.60;;;;;;4969681;28;20085;-82
2023/09/27 11:50:15;;;;;;;4.00;2.40;;;28.90;78.70;;;;;;4969844;28;20023;-82
2023/09/27 11:52:46;;;;;;;2.65;2.08;;;28.40;85.20;;;;;;4970012;28;20487;-82
2023/09/27 11:55:15;;;;;;;3.08;1.88;;;28.20;83.80;;;;;;4958053;28;20114;-82
2023/09/27 11:57:41;;;;;;;2.67;2.33;;;28.10;85.70;;;;;;4951686;28;20042;-82
2023/09/27 12:00:08;;;;;;;5.85;2.10;;;28.60;81.40;;;;;;4970719;28;20035;-81
2023/09/27 12:02:34;;;;;;;4.80;2.20;;;28.70;80.50;;;;;;4965911;28;20077;-82
2023/09/27 12:05:01;;;;;;;2.00;1.80;;;28.40;83.80;;;;;;4971662;28;20026;-82
2023/09/27 12:07:29;;;;;;;3.25;2.22;;;28.80;83.70;;;;;;4974522;28;20027;-82
2023/09/27 12:09:55;;;;;;;4.72;2.03;;;28.60;81.60;;;;;;4968647;28;20030;-82
2023/09/27 12:12:20;;;;;;;2.78;1.90;;;28.80;80.20;;;;;;4967284;28;20031;-82
2023/09/27 12:14:46;;;;;;;2.65;2.28;;;28.50;90.70;;;;;;4973224;28;20023;-82
2023/09/27 12:17:12;;;;;;;2.58;1.95;;;28.60;84.10;;;;;;4972770;28;20027;-81
2023/09/27 12:19:38;;;;;;;4.60;1.98;;;29.70;77.70;;;;;;4954733;28;20089;-81
2023/09/27 12:22:03;;;;;;;3.88;1.98;;;29.90;78.10;;;;;;4973633;28;20617;-80
2023/09/27 12:24:30;;;;;;;2.53;1.95;;;29.40;80.30;;;;;;4972718;28;20047;-81
2023/09/27 12:26:56;;;;;;;2.35;1.90;;;29.20;80.00;;;;;;4969954;28;20435;-81
2023/09/27 12:29:21;;;;;;;4.00;1.95;;;29.10;82.10;;;;;;4973282;28;20074;-81
2023/09/27 12:31:47;;;;;;;3.33;2.17;;;29.10;81.20;;;;;;4973356;28;20462;-81
2023/09/27 12:34:13;;;;;;;3.35;2.35;;;29.40;81.70;;;;;;4987865;28;20472;-80
2023/09/27 12:36:38;;;;;;;4.35;2.10;;;29.40;80.60;;;;;;4976658;28;20038;-81
2023/09/27 12:39:04;;;;;;;3.88;2.25;;;29.20;86.60;;;;;;4970549;28;20080;-81
2023/09/27 12:41:29;;;;;;;3.33;2.42;;;29.90;79.30;;;;;;4968730;28;20038;-81
2023/09/27 12:43:55;;;;;;;4.50;1.95;;;30.30;77.20;;;;;;4971497;28;20042;-81